createdAt,value
2023-11-12T00:00:33.187Z,39.91
2023-11-12T00:02:59.712Z,39.75
2023-11-12T00:05:26.145Z,39.96
2023-11-12T00:07:53.532Z,39.88
2023-11-12T00:10:21.199Z,40.10
2023-11-12T00:12:47.575Z,40.24
2023-11-12T00:15:14.040Z,40.07
2023-11-12T00:17:43.184Z,40.08
2023-11-12T00:20:13.661Z,40.05
2023-11-12T00:22:44.906Z,40.27
2023-11-12T00:25:13.658Z,39.97
2023-11-12T00:27:42.828Z,39.70
2023-11-12T00:30:10.031Z,39.99
2023-11-12T00:32:36.585Z,39.79
2023-11-12T00:35:03.167Z,39.88
2023-11-12T00:37:29.943Z,39.72
2023-11-12T00:39:56.304Z,39.67
2023-11-12T00:42:22.727Z,39.85
2023-11-12T00:44:49.087Z,39.93
2023-11-12T00:47:15.493Z,40.00
2023-11-12T00:49:42.087Z,39.98
2023-11-12T00:52:09.850Z,39.67
2023-11-12T00:54:37.406Z,40.04
2023-11-12T00:57:03.820Z,40.04
2023-11-12T00:59:30.172Z,40.11
2023-11-12T01:01:56.855Z,40.05
2023-11-12T01:04:24.327Z,40.06
2023-11-12T01:06:50.875Z,39.91
2023-11-12T01:09:17.247Z,40.16
2023-11-12T01:11:43.614Z,39.96
2023-11-12T01:14:10.122Z,39.86
2023-11-12T01:16:38.878Z,39.97
2023-11-12T01:19:06.345Z,39.65
2023-11-12T01:21:32.806Z,39.85
2023-11-12T01:23:59.215Z,39.80
2023-11-12T01:26:25.599Z,39.92
2023-11-12T01:28:51.978Z,39.80
2023-11-12T01:31:18.326Z,39.72
2023-11-12T01:33:45.933Z,39.86
2023-11-12T01:36:12.721Z,39.88
2023-11-12T01:38:39.104Z,39.97
2023-11-12T01:41:05.840Z,39.93
2023-11-12T01:43:32.443Z,40.09
2023-11-12T01:45:58.975Z,40.12
2023-11-12T01:48:25.520Z,39.83
2023-11-12T01:50:51.945Z,39.94
2023-11-12T01:53:18.302Z,40.03
2023-11-12T01:55:46.573Z,40.11
2023-11-12T01:58:13.028Z,40.11
2023-11-12T02:00:42.439Z,40.10
2023-11-12T02:03:10.250Z,40.11
2023-11-12T02:05:36.900Z,40.16
2023-11-12T02:08:06.288Z,39.92
2023-11-12T02:10:40.291Z,40.15
2023-11-12T02:13:07.858Z,40.05
2023-11-12T02:15:34.421Z,40.09
2023-11-12T02:18:00.944Z,39.94
2023-11-12T02:20:28.218Z,40.13
2023-11-12T02:22:54.701Z,40.09
2023-11-12T02:25:21.132Z,40.08
2023-11-12T02:27:47.477Z,40.10
2023-11-12T02:30:14.159Z,39.87
2023-11-12T02:32:41.938Z,40.18
2023-11-12T02:35:09.102Z,39.90
2023-11-12T02:37:36.593Z,39.98
2023-11-12T02:40:03.625Z,39.99
2023-11-12T02:42:30.722Z,40.30
2023-11-12T02:45:00.927Z,39.99
2023-11-12T02:47:28.203Z,40.32
2023-11-12T02:49:57.673Z,40.11
2023-11-12T02:52:24.052Z,40.13
2023-11-12T02:54:50.410Z,40.19
2023-11-12T02:57:16.876Z,40.36
2023-11-12T02:59:43.303Z,40.21
2023-11-12T03:02:10.185Z,40.22
2023-11-12T03:04:36.547Z,40.14
2023-11-12T03:07:02.931Z,40.30
2023-11-12T03:09:29.846Z,40.11
2023-11-12T03:11:56.403Z,40.30
2023-11-12T03:14:22.924Z,40.29
2023-11-12T03:16:50.292Z,40.20
2023-11-12T03:19:16.685Z,40.35
2023-11-12T03:21:43.139Z,40.31
2023-11-12T03:24:12.277Z,40.20
2023-11-12T03:26:38.685Z,40.34
2023-11-12T03:29:05.265Z,40.14
2023-11-12T03:31:31.695Z,40.39
2023-11-12T03:33:58.082Z,40.20
2023-11-12T03:36:25.196Z,40.31
2023-11-12T03:38:51.637Z,40.40
2023-11-12T03:41:18.021Z,40.47
2023-11-12T03:43:44.463Z,40.38
2023-11-12T03:46:10.893Z,40.38
2023-11-12T03:48:37.392Z,40.49
2023-11-12T03:51:03.923Z,40.45
2023-11-12T03:53:30.294Z,40.36
2023-11-12T03:55:56.661Z,40.22
2023-11-12T03:58:23.044Z,40.43
2023-11-12T04:00:49.427Z,40.61
2023-11-12T04:03:16.399Z,40.52
2023-11-12T04:05:43.063Z,40.45
2023-11-12T04:08:10.076Z,40.49
2023-11-12T04:10:36.451Z,40.61
2023-11-12T04:13:03.588Z,40.51
2023-11-12T04:15:30.347Z,40.38
2023-11-12T04:17:56.746Z,40.53
2023-11-12T04:20:29.019Z,40.60
2023-11-12T04:22:56.030Z,40.56
2023-11-12T04:25:22.404Z,40.51
2023-11-12T04:27:48.768Z,40.44
2023-11-12T04:30:15.215Z,40.44
2023-11-12T04:32:41.927Z,40.61
2023-11-12T04:35:08.569Z,40.49
2023-11-12T04:37:35.423Z,40.77
2023-11-12T04:40:01.818Z,40.46
2023-11-12T04:42:28.199Z,40.64
2023-11-12T04:44:55.796Z,40.50
2023-11-12T04:47:22.173Z,40.64
2023-11-12T04:49:48.556Z,40.62
2023-11-12T04:52:14.925Z,40.79
2023-11-12T04:54:41.398Z,40.67
2023-11-12T04:57:07.854Z,40.72
2023-11-12T04:59:34.286Z,40.82
2023-11-12T05:02:00.847Z,40.88
2023-11-12T05:04:27.344Z,40.79
2023-11-12T05:06:53.726Z,40.72
2023-11-12T05:09:20.128Z,40.83
2023-11-12T05:11:46.601Z,40.89
2023-11-12T05:14:12.970Z,40.76
2023-11-12T05:16:41.584Z,40.77
2023-11-12T05:19:07.943Z,40.66
2023-11-12T05:21:34.380Z,40.70
2023-11-12T05:24:00.755Z,40.46
2023-11-12T05:26:27.122Z,40.76
2023-11-12T05:28:53.501Z,40.64
2023-11-12T05:31:19.920Z,40.51
2023-11-12T05:33:46.450Z,40.53
2023-11-12T05:36:12.961Z,40.71
2023-11-12T05:38:39.492Z,40.62
2023-11-12T05:41:05.868Z,40.74
2023-11-12T05:43:32.233Z,40.82
2023-11-12T05:45:58.666Z,40.73
2023-11-12T05:48:25.067Z,40.98
2023-11-12T05:50:51.481Z,40.81
2023-11-12T05:53:17.915Z,40.61
2023-11-12T05:55:44.287Z,40.66
2023-11-12T05:58:10.716Z,40.52
2023-11-12T06:00:37.501Z,40.86
2023-11-12T06:03:04.010Z,40.69
2023-11-12T06:05:30.430Z,40.59
2023-11-12T06:07:56.780Z,41.00
2023-11-12T06:10:24.406Z,40.98
2023-11-12T06:12:50.782Z,40.94
2023-11-12T06:15:17.572Z,40.92
2023-11-12T06:17:44.024Z,40.71
2023-11-12T06:20:10.599Z,40.75
2023-11-12T06:22:36.976Z,40.72
2023-11-12T06:25:03.709Z,40.74
2023-11-12T06:27:30.167Z,40.71
2023-11-12T06:29:56.538Z,40.73
2023-11-12T06:32:22.987Z,40.82
2023-11-12T06:34:49.717Z,40.84
2023-11-12T06:37:16.580Z,40.87
2023-11-12T06:39:43.003Z,40.84
2023-11-12T06:42:10.146Z,40.82
2023-11-12T06:44:39.321Z,40.97
2023-11-12T06:47:05.851Z,41.01
2023-11-12T06:49:33.322Z,40.85
2023-11-12T06:52:00.043Z,40.82
2023-11-12T06:54:27.564Z,40.93
2023-11-12T06:56:57.233Z,40.73
2023-11-12T06:59:24.086Z,40.75
2023-11-12T07:01:50.471Z,40.70
2023-11-12T07:04:16.937Z,40.75
2023-11-12T07:06:50.287Z,40.44
2023-11-12T07:09:20.496Z,40.46
2023-11-12T07:11:46.847Z,40.55
2023-11-12T07:14:13.280Z,40.57
2023-11-12T07:16:39.976Z,40.53
2023-11-12T07:19:06.518Z,40.70
2023-11-12T07:21:32.948Z,40.62
2023-11-12T07:24:00.227Z,40.56
2023-11-12T07:26:26.976Z,40.74
2023-11-12T07:28:53.819Z,40.66
2023-11-12T07:31:23.126Z,40.66
2023-11-12T07:33:49.933Z,40.71
2023-11-12T07:36:16.501Z,40.77
2023-11-12T07:38:42.885Z,40.66
2023-11-12T07:41:09.375Z,40.63
2023-11-12T07:43:36.872Z,40.48
2023-11-12T07:46:04.151Z,40.35
2023-11-12T07:48:31.050Z,40.47
2023-11-12T07:51:00.756Z,40.37
2023-11-12T07:53:27.229Z,40.48
2023-11-12T07:55:53.803Z,39.90
2023-11-12T07:58:20.379Z,40.02
2023-11-12T08:00:46.800Z,40.21
2023-11-12T08:03:13.239Z,40.05
2023-11-12T08:05:39.673Z,39.59
2023-11-12T08:08:06.024Z,39.45
2023-11-12T08:10:32.492Z,39.36
2023-11-12T08:12:59.369Z,39.06
2023-11-12T08:15:25.803Z,39.23
2023-11-12T08:17:52.194Z,39.32
2023-11-12T08:20:19.270Z,38.99
2023-11-12T08:22:47.756Z,39.34
2023-11-12T08:25:14.117Z,39.15
2023-11-12T08:27:40.576Z,39.14
2023-11-12T08:30:07.215Z,38.99
2023-11-12T08:32:36.142Z,38.92
2023-11-12T08:35:02.654Z,39.01
2023-11-12T08:37:29.248Z,38.91
2023-11-12T08:39:55.727Z,38.80
2023-11-12T08:42:22.169Z,38.89
2023-11-12T08:44:48.557Z,38.81
2023-11-12T08:47:14.973Z,38.61
2023-11-12T08:49:41.338Z,37.88
2023-11-12T08:52:07.787Z,38.60
2023-11-12T08:54:35.584Z,38.57
2023-11-12T08:57:04.381Z,38.44
2023-11-12T08:59:31.481Z,38.73
2023-11-12T09:01:57.878Z,38.63
2023-11-12T09:04:24.709Z,38.69
2023-11-12T09:06:51.188Z,38.59
2023-11-12T09:09:18.796Z,38.37
2023-11-12T09:11:45.254Z,38.29
2023-11-12T09:14:13.407Z,38.15
2023-11-12T09:16:43.711Z,38.18
2023-11-12T09:19:10.476Z,38.37
2023-11-12T09:21:37.397Z,38.59
2023-11-12T09:24:04.037Z,38.67
2023-11-12T09:26:30.487Z,38.54
2023-11-12T09:28:56.881Z,38.84
2023-11-12T09:31:23.375Z,38.82
2023-11-12T09:33:50.162Z,38.91
2023-11-12T09:36:18.531Z,38.92
2023-11-12T09:38:45.068Z,39.13
2023-11-12T09:41:11.503Z,39.01
2023-11-12T09:43:37.890Z,39.12
2023-11-12T09:46:07.794Z,39.06
2023-11-12T09:48:40.233Z,38.88
2023-11-12T09:51:07.119Z,38.87
2023-11-12T09:53:35.158Z,38.92
2023-11-12T09:56:09.596Z,39.17
2023-11-12T09:58:37.102Z,39.31
2023-11-12T10:01:03.598Z,39.14
2023-11-12T10:03:30.366Z,39.40
2023-11-12T10:05:56.759Z,39.53
2023-11-12T10:08:23.610Z,39.56
2023-11-12T10:10:50.051Z,39.83
2023-11-12T10:13:16.449Z,40.04
2023-11-12T10:15:42.923Z,39.88
2023-11-12T10:18:11.051Z,40.01
2023-11-12T10:20:39.963Z,39.83
2023-11-12T10:23:07.633Z,39.83
2023-11-12T10:25:40.635Z,39.83
2023-11-12T10:28:10.147Z,39.58
2023-11-12T10:30:38.927Z,39.66
2023-11-12T10:33:18.585Z,39.73
2023-11-12T10:35:45.191Z,39.70
2023-11-12T10:38:13.969Z,39.80
2023-11-12T10:40:46.055Z,39.79
2023-11-12T10:43:12.472Z,39.93
2023-11-12T10:45:42.337Z,39.96
2023-11-12T10:48:10.481Z,39.84
2023-11-12T10:50:37.567Z,40.00
2023-11-12T10:53:05.299Z,39.88
2023-11-12T10:55:31.678Z,39.89
2023-11-12T10:57:58.558Z,39.74
2023-11-12T11:00:25.040Z,39.97
2023-11-12T11:02:51.507Z,39.87
2023-11-12T11:05:17.933Z,39.65
2023-11-12T11:07:44.860Z,39.78
2023-11-12T11:10:12.171Z,39.60
2023-11-12T11:12:38.632Z,39.53
2023-11-12T11:15:23.740Z,39.31
2023-11-12T11:17:50.207Z,39.07
2023-11-12T11:20:17.748Z,39.06
2023-11-12T11:22:45.630Z,38.98
2023-11-12T11:25:22.863Z,38.92
2023-11-12T11:27:51.391Z,38.91
2023-11-12T11:30:17.784Z,39.20
2023-11-12T11:32:55.689Z,39.06
2023-11-12T11:35:22.754Z,39.23
2023-11-12T11:38:18.048Z,39.15
2023-11-12T11:40:45.974Z,39.20
2023-11-12T11:43:24.573Z,39.25
2023-11-12T11:46:06.277Z,38.92
2023-11-12T11:48:33.040Z,38.97
2023-11-12T11:51:00.766Z,38.80
2023-11-12T11:53:28.971Z,38.79
2023-11-12T11:56:04.796Z,38.92
2023-11-12T11:58:35.547Z,38.94
2023-11-12T12:01:01.964Z,38.92
2023-11-12T12:03:29.894Z,38.72
2023-11-12T12:05:56.626Z,38.71
2023-11-12T12:08:23.013Z,39.10
2023-11-12T12:10:49.508Z,39.10
2023-11-12T12:13:16.497Z,39.33
2023-11-12T12:15:46.209Z,39.01
2023-11-12T12:18:23.971Z,39.19
2023-11-12T12:20:52.268Z,39.42
2023-11-12T12:23:18.906Z,39.41
2023-11-12T12:25:49.341Z,39.47
2023-11-12T12:28:20.761Z,39.67
2023-11-12T12:30:53.680Z,39.80
2023-11-12T12:33:20.098Z,39.93
2023-11-12T12:35:46.962Z,39.97
2023-11-12T12:38:13.512Z,40.06
2023-11-12T12:40:40.027Z,40.02
2023-11-12T12:43:11.479Z,40.13
2023-11-12T12:45:37.906Z,40.20
2023-11-12T12:48:14.717Z,40.22
2023-11-12T12:50:41.119Z,40.22
2023-11-12T12:53:18.996Z,40.07
2023-11-12T12:55:45.577Z,40.16
2023-11-12T12:58:12.346Z,40.39
2023-11-12T13:00:39.703Z,40.32
2023-11-12T13:03:22.119Z,40.34
2023-11-12T13:05:48.663Z,40.29
2023-11-12T13:08:15.041Z,40.28
2023-11-12T13:10:41.600Z,40.11
2023-11-12T13:13:08.074Z,40.30
2023-11-12T13:15:34.480Z,40.33
2023-11-12T13:18:01.238Z,40.46
2023-11-12T13:20:27.720Z,40.29
2023-11-12T13:22:54.257Z,40.53
2023-11-12T13:25:20.636Z,40.40
2023-11-12T13:27:47.163Z,40.28
2023-11-12T13:30:13.628Z,40.25
2023-11-12T13:32:41.362Z,40.43
2023-11-12T13:35:09.141Z,40.29
2023-11-12T13:37:36.041Z,40.22
2023-11-12T13:40:06.812Z,40.27
2023-11-12T13:42:36.703Z,40.24
2023-11-12T13:45:07.655Z,40.50
2023-11-12T13:47:34.052Z,40.58
2023-11-12T13:50:00.621Z,40.65
2023-11-12T13:52:28.352Z,40.68
2023-11-12T13:54:54.867Z,40.62
2023-11-12T13:57:21.281Z,40.56
2023-11-12T13:59:47.687Z,40.68
2023-11-12T14:02:14.077Z,40.79
2023-11-12T14:04:40.520Z,40.53
2023-11-12T14:07:07.189Z,40.66
2023-11-12T14:09:35.368Z,40.50
2023-11-12T14:12:08.747Z,40.60
2023-11-12T14:14:35.361Z,40.63
2023-11-12T14:17:07.938Z,40.64
2023-11-12T14:19:36.839Z,40.82
2023-11-12T14:22:05.155Z,40.81
2023-11-12T14:24:31.961Z,41.04
2023-11-12T14:26:58.564Z,40.97
2023-11-12T14:29:26.716Z,40.99
2023-11-12T14:31:53.240Z,41.03
2023-11-12T14:34:19.853Z,40.92
2023-11-12T14:36:46.569Z,40.93
2023-11-12T14:39:19.063Z,41.00
2023-11-12T14:41:46.252Z,40.72
2023-11-12T14:44:12.603Z,40.66
2023-11-12T14:46:39.746Z,40.79
2023-11-12T14:49:06.845Z,40.75
2023-11-12T14:51:34.469Z,40.58
2023-11-12T14:54:05.612Z,40.87
2023-11-12T14:56:37.532Z,40.80
2023-11-12T14:59:05.091Z,40.94
2023-11-12T15:01:31.810Z,41.13
2023-11-12T15:03:58.303Z,41.01
2023-11-12T15:06:24.771Z,40.88
2023-11-12T15:08:51.166Z,40.75
2023-11-12T15:11:17.527Z,40.83
2023-11-12T15:13:44.451Z,40.57
2023-11-12T15:16:11.246Z,40.67
2023-11-12T15:18:37.705Z,40.55
2023-11-12T15:21:04.783Z,40.51
2023-11-12T15:23:34.221Z,40.51
2023-11-12T15:26:00.652Z,40.53
2023-11-12T15:28:29.886Z,40.69
2023-11-12T15:30:56.947Z,40.71
2023-11-12T15:33:24.113Z,40.58
2023-11-12T15:35:50.681Z,40.68
2023-11-12T15:38:17.060Z,40.64
2023-11-12T15:40:45.445Z,40.65
2023-11-12T15:43:11.857Z,40.71
2023-11-12T15:45:38.231Z,40.75
2023-11-12T15:48:04.814Z,40.80
2023-11-12T15:50:31.421Z,41.11
2023-11-12T15:52:58.580Z,40.89
2023-11-12T15:55:25.160Z,40.88
2023-11-12T15:57:51.706Z,40.86
2023-11-12T16:00:21.095Z,41.05
2023-11-12T16:02:47.973Z,41.26
2023-11-12T16:05:14.648Z,41.14
2023-11-12T16:07:41.335Z,40.66
2023-11-12T16:10:08.624Z,40.82
2023-11-12T16:12:35.108Z,40.63
2023-11-12T16:15:06.512Z,40.68
2023-11-12T16:17:33.129Z,40.71
2023-11-12T16:20:05.741Z,40.65
2023-11-12T16:22:34.695Z,40.59
2023-11-12T16:25:05.231Z,40.36
2023-11-12T16:27:32.125Z,40.33
2023-11-12T16:29:58.745Z,40.04
2023-11-12T16:32:25.353Z,40.26
2023-11-12T16:34:55.097Z,40.58
2023-11-12T16:37:21.461Z,40.72
2023-11-12T16:39:48.544Z,40.54
2023-11-12T16:42:15.341Z,40.39
2023-11-12T16:44:42.333Z,40.41
2023-11-12T16:47:08.989Z,40.62
2023-11-12T16:49:36.751Z,40.54
2023-11-12T16:52:03.573Z,40.82
2023-11-12T16:54:30.084Z,41.07
2023-11-12T16:56:58.846Z,41.15
2023-11-12T16:59:25.934Z,41.57
2023-11-12T17:01:52.379Z,41.97
2023-11-12T17:04:18.858Z,42.01
2023-11-12T17:06:46.727Z,41.93
2023-11-12T17:09:14.311Z,41.77
2023-11-12T17:11:40.681Z,41.82
2023-11-12T17:14:08.540Z,41.91
2023-11-12T17:16:39.065Z,41.89
2023-11-12T17:19:05.615Z,41.77
2023-11-12T17:21:33.853Z,41.89
2023-11-12T17:24:05.068Z,42.08
2023-11-12T17:26:31.507Z,42.16
2023-11-12T17:28:59.153Z,42.17
2023-11-12T17:31:25.726Z,41.84
2023-11-12T17:33:56.101Z,41.46
2023-11-12T17:36:23.233Z,41.00
2023-11-12T17:38:50.405Z,41.04
2023-11-12T17:41:17.795Z,40.62
2023-11-12T17:43:46.996Z,40.74
2023-11-12T17:46:14.623Z,40.87
2023-11-12T17:48:44.075Z,40.77
2023-11-12T17:51:10.979Z,40.72
2023-11-12T17:53:37.642Z,40.90
2023-11-12T17:56:04.198Z,40.60
2023-11-12T17:58:30.796Z,40.41
2023-11-12T18:00:59.367Z,40.56
2023-11-12T18:03:28.497Z,40.15
2023-11-12T18:05:54.973Z,40.02
2023-11-12T18:08:21.692Z,40.74
2023-11-12T18:10:48.273Z,40.10
2023-11-12T18:13:16.486Z,40.43
2023-11-12T18:15:44.694Z,40.25
2023-11-12T18:18:12.227Z,40.11
2023-11-12T18:20:39.053Z,40.40
2023-11-12T18:23:06.348Z,39.94
2023-11-12T18:25:34.450Z,40.01
2023-11-12T18:28:01.280Z,40.19
2023-11-12T18:30:28.500Z,39.74
2023-11-12T18:32:54.892Z,39.68
2023-11-12T18:35:22.201Z,40.08
2023-11-12T18:37:51.751Z,39.94
2023-11-12T18:40:20.164Z,39.81
2023-11-12T18:42:46.607Z,40.06
2023-11-12T18:45:17.726Z,40.04
2023-11-12T18:47:45.105Z,40.25
2023-11-12T18:50:11.757Z,40.51
2023-11-12T18:52:38.892Z,40.48
2023-11-12T18:55:08.997Z,39.93
2023-11-12T18:57:35.500Z,40.66
2023-11-12T19:00:07.627Z,40.31
2023-11-12T19:02:35.281Z,39.40
2023-11-12T19:05:04.131Z,39.81
2023-11-12T19:07:31.037Z,40.17
2023-11-12T19:09:57.432Z,39.98
2023-11-12T19:12:23.813Z,40.23
2023-11-12T19:14:50.170Z,39.98
2023-11-12T19:17:16.705Z,39.93
2023-11-12T19:19:43.116Z,39.88
2023-11-12T19:22:09.629Z,40.03
2023-11-12T19:24:37.428Z,39.97
2023-11-12T19:27:04.608Z,40.09
2023-11-12T19:29:31.663Z,40.24
2023-11-12T19:31:58.207Z,40.31
2023-11-12T19:34:27.238Z,40.51
2023-11-12T19:36:53.823Z,40.60
2023-11-12T19:39:20.841Z,40.71
2023-11-12T19:41:47.641Z,41.04
2023-11-12T19:44:14.136Z,41.25
2023-11-12T19:46:43.603Z,41.54
2023-11-12T19:49:10.034Z,41.81
2023-11-12T19:51:36.758Z,41.31
2023-11-12T19:54:04.597Z,41.34
2023-11-12T19:56:31.164Z,41.24
2023-11-12T19:59:01.200Z,41.55
2023-11-12T20:01:30.450Z,41.72
2023-11-12T20:03:57.224Z,41.34
2023-11-12T20:06:23.911Z,41.48
2023-11-12T20:08:50.306Z,41.65
2023-11-12T20:11:17.984Z,40.92
2023-11-12T20:13:45.541Z,41.11
2023-11-12T20:16:15.644Z,41.04
2023-11-12T20:18:45.161Z,40.82
2023-11-12T20:21:11.601Z,41.28
2023-11-12T20:23:40.897Z,41.12
2023-11-12T20:26:07.386Z,40.79
2023-11-12T20:28:34.112Z,41.12
2023-11-12T20:31:00.795Z,41.41
2023-11-12T20:33:27.597Z,41.09
2023-11-12T20:35:54.346Z,41.12
2023-11-12T20:38:20.852Z,40.82
2023-11-12T20:40:47.242Z,40.75
2023-11-12T20:43:14.276Z,40.62
2023-11-12T20:45:41.463Z,40.47
2023-11-12T20:48:07.999Z,40.07
2023-11-12T20:50:38.759Z,39.74
2023-11-12T20:53:07.293Z,40.00
2023-11-12T20:55:33.669Z,39.88
2023-11-12T20:58:00.076Z,39.91
2023-11-12T21:00:28.602Z,39.48
2023-11-12T21:02:55.040Z,39.58
2023-11-12T21:05:21.866Z,39.13
2023-11-12T21:07:48.578Z,39.09
2023-11-12T21:10:15.168Z,38.75
2023-11-12T21:12:41.576Z,39.35
2023-11-12T21:15:10.622Z,39.27
2023-11-12T21:17:37.025Z,39.14
2023-11-12T21:20:04.174Z,38.84
2023-11-12T21:22:30.647Z,38.49
2023-11-12T21:24:57.142Z,38.82
2023-11-12T21:27:23.534Z,38.75
2023-11-12T21:29:49.897Z,38.86
2023-11-12T21:32:16.321Z,38.77
2023-11-12T21:34:42.692Z,38.83
2023-11-12T21:37:09.166Z,38.69
2023-11-12T21:39:38.561Z,38.94
2023-11-12T21:42:06.346Z,38.91
2023-11-12T21:44:32.834Z,38.40
2023-11-12T21:46:59.926Z,39.13
2023-11-12T21:49:28.005Z,38.62
2023-11-12T21:51:56.470Z,38.32
2023-11-12T21:54:24.099Z,38.43
2023-11-12T21:56:51.573Z,38.77
2023-11-12T21:59:21.263Z,38.78
2023-11-12T22:01:56.955Z,39.16
2023-11-12T22:04:25.893Z,38.68
2023-11-12T22:06:52.378Z,38.75
2023-11-12T22:09:18.810Z,38.44
2023-11-12T22:11:45.659Z,38.64
2023-11-12T22:14:12.330Z,37.92
2023-11-12T22:16:39.028Z,37.76
2023-11-12T22:19:07.811Z,38.45
2023-11-12T22:21:34.939Z,38.23
2023-11-12T22:24:01.634Z,38.44
2023-11-12T22:26:29.354Z,38.75
2023-11-12T22:28:56.139Z,38.49
2023-11-12T22:31:22.877Z,38.33
2023-11-12T22:33:49.392Z,39.00
2023-11-12T22:36:15.791Z,38.67
2023-11-12T22:38:42.191Z,38.54
2023-11-12T22:41:08.685Z,38.35
2023-11-12T22:43:35.099Z,37.87
2023-11-12T22:46:01.626Z,38.28
2023-11-12T22:48:28.056Z,38.44
2023-11-12T22:50:54.437Z,38.28
2023-11-12T22:53:23.485Z,38.87
2023-11-12T22:55:51.024Z,38.53
2023-11-12T22:58:17.612Z,38.48
2023-11-12T23:00:48.152Z,39.07
2023-11-12T23:03:16.180Z,38.23
2023-11-12T23:05:42.907Z,38.79
2023-11-12T23:08:09.494Z,38.18
2023-11-12T23:10:36.096Z,38.27
2023-11-12T23:13:02.804Z,38.15
2023-11-12T23:15:29.194Z,38.19
2023-11-12T23:17:55.591Z,38.25
2023-11-12T23:20:22.646Z,38.24
2023-11-12T23:22:49.115Z,38.36
2023-11-12T23:25:16.781Z,38.42
2023-11-12T23:27:43.227Z,38.23
2023-11-12T23:30:09.874Z,38.45
2023-11-12T23:32:37.091Z,38.55
2023-11-12T23:35:04.074Z,38.78
2023-11-12T23:37:30.443Z,38.14
2023-11-12T23:39:56.955Z,38.25
2023-11-12T23:42:24.087Z,37.94
2023-11-12T23:44:50.849Z,38.02
2023-11-12T23:47:17.241Z,37.77
2023-11-12T23:49:43.643Z,38.55
2023-11-12T23:52:11.532Z,38.19
2023-11-12T23:54:38.938Z,38.95
2023-11-12T23:57:05.314Z,38.13
2023-11-12T23:59:32.728Z,37.86
